Item Display Status Inductive CT Sensor

Mooring Depth: 120 m

 

Deployed Sensor

  • Serial Number: 4882
  • NDBC Property Number: 26482
  • Start Date: 4/19/2019 (15:50:20 Z)
  • End Date: 3/20/2020 (17:45:00 Z)
Water Temperature [°C]     6 entries per hour
Showing data from 3/20/2020 (17:00:00 Z) to 3/19/2020 (00:00:01 Z)
Previous Next [ Day | 3-Days | 7-Days ]
First Last
Prev [ Day | 3-Days | 7-Days ] Next
First Last

Start Time:     :
End Time:     :     
Time (in GMT) :00 :50 :40 :30 :20 :10
Previous Next [ Day | 3-Days | 7-Days ]
First Last
Prev [ Day | 3-Days | 7-Days ] Next
First Last


123 => good data
MM => data is determined as missing
-- => data not received/configured
Back to Top Back to Top
3/20/2020 17:00 to 16:10 17.405 17.557 17.154 17.633 17.729 17.440
3/20/2020 16:00 to 15:10 17.359 16.974 16.858 16.973 16.815 16.804
3/20/2020 15:00 to 14:10 17.084 17.700 17.680 17.551 17.729 17.772
3/20/2020 14:00 to 13:10 17.889 17.789 17.507 17.291 17.071 17.232
3/20/2020 13:00 to 12:10 17.069 16.719 16.543 16.628 16.603 16.641
3/20/2020 12:00 to 11:10 16.613 16.575 16.707 16.684 17.138 17.208
3/20/2020 11:00 to 10:10 16.664 17.280 17.174 17.303 17.255 17.643
3/20/2020 10:00 to 9:10 17.499 17.678 17.707 17.558 17.764 17.780
3/20/2020 09:00 to 8:10 17.791 18.067 18.006 18.261 18.369 18.356
3/20/2020 08:00 to 7:10 18.991 20.317 19.542 19.524 18.818 18.212
3/20/2020 07:00 to 6:10 17.992 18.078 18.152 18.006 18.082 18.083
3/20/2020 06:00 to 5:10 18.113 18.090 18.088 18.042 18.071 18.105
3/20/2020 05:00 to 4:10 18.114 18.110 18.102 17.960 17.901 18.070
3/20/2020 04:00 to 3:10 18.049 18.052 17.977 17.875 17.888 17.739
3/20/2020 03:00 to 2:10 17.686 17.702 17.730 17.763 17.781 17.773
3/20/2020 02:00 to 1:10 17.790 17.585 17.799 17.667 17.321 17.702
3/20/2020 01:00 to 0:10 17.821 17.822 17.811 17.842 17.846 17.827
3/20/2020 00:00 to 23:10 17.869 17.869 17.865 17.850 17.853 17.853
3/19/2020 23:00 to 22:10 17.873 17.892 18.059 18.311 18.694 18.577
3/19/2020 22:00 to 21:10 19.329 19.159 18.977 19.374 19.402 20.704
3/19/2020 21:00 to 20:10 20.230 21.566 20.100 19.775 19.733 20.405
3/19/2020 20:00 to 19:10 20.480 21.600 22.201 22.027 21.804 22.010
3/19/2020 19:00 to 18:10 21.923 22.095 21.866 21.968 21.772 21.367
3/19/2020 18:00 to 17:10 19.830 20.480 20.384 19.081 19.973 19.233
3/19/2020 17:00 to 16:10 19.462 18.853 19.759 18.557 18.504 18.520
3/19/2020 16:00 to 15:10 18.526 18.531 18.569 18.483 18.529 18.437
3/19/2020 15:00 to 14:10 18.278 18.353 18.120 18.119 18.364 18.124
3/19/2020 14:00 to 13:10 18.401 18.458 18.426 18.425 18.478 18.535
3/19/2020 13:00 to 12:10 18.132 18.154 18.521 18.159 18.150 18.205
3/19/2020 12:00 to 11:10 18.434 18.471 18.611 18.669 18.718 18.780
3/19/2020 11:00 to 10:10 18.728 18.830 18.755 19.035 19.215 18.928
3/19/2020 10:00 to 9:10 19.585 19.567 19.682 19.767 19.519 19.261
3/19/2020 09:00 to 8:10 19.510 19.371 19.341 18.787 18.859 18.875
3/19/2020 08:00 to 7:10 19.392 18.960 20.245 20.827 21.336 20.264
3/19/2020 07:00 to 6:10 21.737 21.825 22.140 22.157 22.164 22.315
3/19/2020 06:00 to 5:10 22.185 22.200 21.659 21.585 21.274 19.661
3/19/2020 05:00 to 4:10 19.615 18.618 18.284 18.293 18.240 18.200
3/19/2020 04:00 to 3:10 18.177 18.170 18.170 18.128 18.088 18.127
3/19/2020 03:00 to 2:10 18.148 18.142 18.149 18.174 18.247 18.202
3/19/2020 02:00 to 1:10 18.200 18.237 18.232 18.325 18.360 18.420
3/19/2020 01:00 to 0:10 18.417 18.442 18.253 18.230 18.176 18.191

 

 

 

Conductivity [S/m]     6 entries per hour
Showing data from 3/20/2020 (17:00:00 Z) to 3/19/2020 (00:00:01 Z)
Previous Next [ Day | 3-Days | 7-Days ]
First Last
Prev [ Day | 3-Days | 7-Days ] Next
First Last

Start Time:     :
End Time:     :     
Time (in GMT) :00 :50 :40 :30 :20 :10
Previous Next [ Day | 3-Days | 7-Days ]
First Last
Prev [ Day | 3-Days | 7-Days ] Next
First Last


123 => good data
MM => data is determined as missing
-- => data not received/configured
Back to Top Back to Top
3/20/2020 17:00 to 16:10 4.56995 4.58906 4.54409 4.59711 4.60623 4.57714
3/20/2020 16:00 to 15:10 4.56350 4.52197 4.50872 4.51971 4.50477 4.50262
3/20/2020 15:00 to 14:10 4.53280 4.60380 4.60176 4.59339 4.60557 4.61082
3/20/2020 14:00 to 13:10 4.62332 4.61255 4.57740 4.55665 4.53192 4.54767
3/20/2020 13:00 to 12:10 4.53075 4.49024 4.46924 4.48043 4.47639 4.48400
3/20/2020 12:00 to 11:10 4.47821 4.47358 4.49017 4.48748 4.53858 4.55019
3/20/2020 11:00 to 10:10 4.48479 4.56049 4.54404 4.55962 4.55772 4.59771
3/20/2020 10:00 to 9:10 4.58505 4.60071 4.60566 4.58653 4.61071 4.61105
3/20/2020 09:00 to 8:10 4.61241 4.63759 4.63271 4.65970 4.67358 4.67121
3/20/2020 08:00 to 7:10 4.74327 4.90965 4.81424 4.81393 4.73513 4.65439
3/20/2020 07:00 to 6:10 4.63523 4.64912 4.65116 4.63512 4.64387 4.64489
3/20/2020 06:00 to 5:10 4.64670 4.64536 4.64482 4.63722 4.64144 4.64561
3/20/2020 05:00 to 4:10 4.64700 4.64682 4.64510 4.62897 4.62565 4.64035
3/20/2020 04:00 to 3:10 4.63947 4.64005 4.63221 4.62125 4.62101 4.60963
3/20/2020 03:00 to 2:10 4.60277 4.60617 4.60929 4.61253 4.61480 4.61345
3/20/2020 02:00 to 1:10 4.61641 4.59302 4.61697 4.59935 4.56111 4.60504
3/20/2020 01:00 to 0:10 4.61938 4.61948 4.61729 4.62208 4.62238 4.61853
3/20/2020 00:00 to 23:10 4.62577 4.62568 4.62524 4.62155 4.62164 4.62132
3/19/2020 23:00 to 22:10 4.62369 4.62584 4.64177 4.67359 4.71548 4.70333
3/19/2020 22:00 to 21:10 4.78740 4.77118 4.75811 4.79424 4.80310 4.97048
3/19/2020 21:00 to 20:10 4.89427 5.04566 4.87891 4.85555 4.84646 4.91826
3/19/2020 20:00 to 19:10 4.92273 5.04827 5.10327 5.08505 5.06349 5.08584
3/19/2020 19:00 to 18:10 5.07442 5.09415 5.06956 5.07556 5.06006 5.01910
3/19/2020 18:00 to 17:10 4.84726 4.92439 4.92588 4.76000 4.88166 4.77513
3/19/2020 17:00 to 16:10 4.80130 4.73082 4.82832 4.69838 4.69151 4.69281
3/19/2020 16:00 to 15:10 4.69359 4.69382 4.69789 4.68562 4.69134 4.68178
3/19/2020 15:00 to 14:10 4.66082 4.67081 4.65042 4.64965 4.67100 4.65164
3/19/2020 14:00 to 13:10 4.67511 4.68141 4.67905 4.67732 4.68335 4.69002
3/19/2020 13:00 to 12:10 4.64623 4.65545 4.68868 4.65745 4.65216 4.65423
3/19/2020 12:00 to 11:10 4.67882 4.68363 4.70063 4.70753 4.71345 4.72207
3/19/2020 11:00 to 10:10 4.71480 4.72812 4.71823 4.74907 4.76994 4.73855
3/19/2020 10:00 to 9:10 4.81387 4.81532 4.82821 4.84188 4.81673 4.77655
3/19/2020 09:00 to 8:10 4.80802 4.79206 4.78696 4.71966 4.72828 4.73264
3/19/2020 08:00 to 7:10 4.78685 4.74330 4.91168 4.96014 5.01895 4.91145
3/19/2020 07:00 to 6:10 5.05722 5.06662 5.09472 5.09397 5.09660 5.10189
3/19/2020 06:00 to 5:10 5.09538 5.09808 5.05147 5.04320 5.01519 4.83408
3/19/2020 05:00 to 4:10 4.81799 4.70384 4.66227 4.66467 4.66582 4.66161
3/19/2020 04:00 to 3:10 4.65806 4.65711 4.65713 4.65167 4.64605 4.65151
3/19/2020 03:00 to 2:10 4.65374 4.65309 4.65474 4.65754 4.66684 4.66074
3/19/2020 02:00 to 1:10 4.66009 4.66458 4.66465 4.67629 4.67772 4.67873
3/19/2020 01:00 to 0:10 4.67832 4.68359 4.66538 4.66230 4.65590 4.65747

 

 

 

Salinity [psu]     6 entries per hour
Showing data from 3/20/2020 (17:00:00 Z) to 3/19/2020 (00:00:01 Z)
Previous Next [ Day | 3-Days | 7-Days ]
First Last
Prev [ Day | 3-Days | 7-Days ] Next
First Last

Start Time:     :
End Time:     :     
Time (in GMT) :00 :50 :40 :30 :20 :10
Previous Next [ Day | 3-Days | 7-Days ]
First Last
Prev [ Day | 3-Days | 7-Days ] Next
First Last


123 => good data
MM => data is determined as missing
-- => data not received/configured
Back to Top Back to Top
3/20/2020 17:00 to 16:10 35.30 35.33 35.29 35.33 35.33 35.33
3/20/2020 16:00 to 15:10 35.28 35.26 35.24 35.24 35.25 35.24
3/20/2020 15:00 to 14:10 35.26 35.33 35.33 35.37 35.32 35.33
3/20/2020 14:00 to 13:10 35.34 35.33 35.27 35.28 35.26 35.26
3/20/2020 13:00 to 12:10 35.25 35.20 35.17 35.20 35.18 35.22
3/20/2020 12:00 to 11:10 35.19 35.18 35.21 35.21 35.26 35.30
3/20/2020 11:00 to 10:10 35.20 35.33 35.27 35.30 35.32 35.33
3/20/2020 10:00 to 9:10 35.35 35.33 35.34 35.31 35.34 35.33
3/20/2020 09:00 to 8:10 35.33 35.30 35.32 35.33 35.35 35.34
3/20/2020 08:00 to 7:10 35.40 35.65 35.53 35.54 35.49 35.32
3/20/2020 07:00 to 6:10 35.35 35.39 35.35 35.34 35.35 35.35
3/20/2020 06:00 to 5:10 35.34 35.35 35.35 35.32 35.33 35.34
3/20/2020 05:00 to 4:10 35.34 35.35 35.34 35.32 35.35 35.33
3/20/2020 04:00 to 3:10 35.34 35.34 35.34 35.33 35.32 35.35
3/20/2020 03:00 to 2:10 35.34 35.35 35.35 35.35 35.36 35.35
3/20/2020 02:00 to 1:10 35.36 35.34 35.36 35.32 35.29 35.34
3/20/2020 01:00 to 0:10 35.36 35.36 35.35 35.37 35.37 35.35
3/20/2020 00:00 to 23:10 35.38 35.37 35.37 35.36 35.35 35.35
3/19/2020 23:00 to 22:10 35.35 35.36 35.35 35.40 35.43 35.42
3/19/2020 22:00 to 21:10 35.49 35.50 35.54 35.50 35.55 35.82
3/19/2020 21:00 to 20:10 35.60 35.71 35.59 35.67 35.63 35.65
3/19/2020 20:00 to 19:10 35.62 35.70 35.64 35.64 35.65 35.66
3/19/2020 19:00 to 18:10 35.64 35.65 35.65 35.61 35.65 35.66
3/19/2020 18:00 to 17:10 35.55 35.64 35.73 35.47 35.72 35.46
3/19/2020 17:00 to 16:10 35.49 35.42 35.46 35.40 35.39 35.38
3/19/2020 16:00 to 15:10 35.39 35.38 35.38 35.36 35.36 35.36
3/19/2020 15:00 to 14:10 35.32 35.34 35.37 35.36 35.33 35.38
3/19/2020 14:00 to 13:10 35.34 35.34 35.35 35.33 35.34 35.35
3/19/2020 13:00 to 12:10 35.32 35.38 35.35 35.39 35.36 35.33
3/19/2020 12:00 to 11:10 35.34 35.35 35.37 35.38 35.39 35.41
3/19/2020 11:00 to 10:10 35.39 35.42 35.40 35.42 35.44 35.42
3/19/2020 10:00 to 9:10 35.49 35.51 35.52 35.56 35.57 35.45
3/19/2020 09:00 to 8:10 35.50 35.49 35.47 35.38 35.39 35.42
3/19/2020 08:00 to 7:10 35.43 35.43 35.73 35.64 35.68 35.71
3/19/2020 07:00 to 6:10 35.66 35.66 35.62 35.60 35.61 35.53
3/19/2020 06:00 to 5:10 35.59 35.60 35.67 35.67 35.71 35.59
3/19/2020 05:00 to 4:10 35.50 35.39 35.33 35.34 35.40 35.39
3/19/2020 04:00 to 3:10 35.38 35.38 35.38 35.37 35.36 35.37
3/19/2020 03:00 to 2:10 35.37 35.37 35.38 35.38 35.40 35.39
3/19/2020 02:00 to 1:10 35.38 35.39 35.39 35.41 35.39 35.35
3/19/2020 01:00 to 0:10 35.35 35.37 35.38 35.37 35.37 35.37